createdAt,value
2022-09-23T00:01:20.550Z,101439.41
2022-09-23T00:03:49.207Z,101427.41
2022-09-23T00:06:20.603Z,101427.47
2022-09-23T00:08:51.560Z,101424.84
2022-09-23T00:11:27.594Z,101415.81
2022-09-23T00:13:58.203Z,101423.94
2022-09-23T00:16:34.248Z,101416.75
2022-09-23T00:19:03.419Z,101420.56
2022-09-23T00:21:31.238Z,101417.13
2022-09-23T00:23:58.881Z,101417.88
2022-09-23T00:26:26.266Z,101424.13
2022-09-23T00:28:56.268Z,101425.03
2022-09-23T00:31:26.358Z,101418.78
2022-09-23T00:33:59.430Z,101423.97
2022-09-23T00:36:28.704Z,101420.56
2022-09-23T00:38:56.392Z,101416.19
2022-09-23T00:41:24.484Z,101413.78
2022-09-23T00:43:55.579Z,101411.09
2022-09-23T00:46:32.650Z,101420.16
2022-09-23T00:49:15.107Z,101411.00
2022-09-23T00:51:50.505Z,101407.47
2022-09-23T00:54:24.314Z,101409.91
2022-09-23T00:56:52.047Z,101407.03
2022-09-23T00:59:21.780Z,101402.56
2022-09-23T01:01:57.158Z,101411.88
2022-09-23T01:04:26.946Z,101400.19
2022-09-23T01:06:54.457Z,101409.69
2022-09-23T01:09:25.395Z,101395.69
2022-09-23T01:12:19.556Z,101398.13
2022-09-23T01:15:05.402Z,101392.00
2022-09-23T01:18:10.669Z,101398.13
2022-09-23T01:21:08.252Z,101397.09
2022-09-23T01:23:50.726Z,101388.09
2022-09-23T01:26:21.098Z,101395.28
2022-09-23T01:29:19.769Z,101387.53
2022-09-23T01:31:53.172Z,101392.53
2022-09-23T01:34:30.648Z,101386.56
2022-09-23T01:37:21.968Z,101383.50
2022-09-23T01:40:03.613Z,101378.34
2022-09-23T01:42:43.296Z,101381.25
2022-09-23T01:45:21.107Z,101378.38
2022-09-23T01:47:55.745Z,101381.13
2022-09-23T01:50:48.216Z,101385.59
2022-09-23T01:53:24.097Z,101373.94
2022-09-23T01:55:58.797Z,101378.66
2022-09-23T01:58:56.978Z,101372.34
2022-09-23T02:01:35.448Z,101372.31
2022-09-23T02:04:13.457Z,101370.44
2022-09-23T02:06:47.721Z,101374.72
2022-09-23T02:09:18.334Z,101369.56
2022-09-23T02:11:49.066Z,101374.91
2022-09-23T02:14:22.200Z,101368.69
2022-09-23T02:16:52.350Z,101370.53
2022-09-23T02:19:30.603Z,101364.63
2022-09-23T02:22:07.115Z,101371.84
2022-09-23T02:24:39.078Z,101369.22
2022-09-23T02:27:18.667Z,101374.53
2022-09-23T02:29:50.415Z,101366.56
2022-09-23T02:32:54.499Z,101366.59
2022-09-23T02:35:37.265Z,101362.13
2022-09-23T02:38:34.895Z,101356.88
2022-09-23T02:41:15.093Z,101363.19
2022-09-23T02:43:52.105Z,101350.28
2022-09-23T02:46:20.581Z,101351.94
2022-09-23T02:48:56.951Z,101352.81
2022-09-23T02:51:25.791Z,101353.78
2022-09-23T02:53:56.381Z,101348.50
2022-09-23T02:56:26.047Z,101341.41
2022-09-23T02:58:55.204Z,101349.22
2022-09-23T03:01:32.525Z,101343.88
2022-09-23T03:04:35.662Z,101345.94
2022-09-23T03:07:12.651Z,101350.22
2022-09-23T03:09:43.497Z,101343.28
2022-09-23T03:12:37.013Z,101341.63
2022-09-23T03:15:17.951Z,101339.13
2022-09-23T03:18:02.637Z,101331.97
2022-09-23T03:20:55.372Z,101336.34
2022-09-23T03:23:34.107Z,101334.53
2022-09-23T03:26:08.590Z,101334.28
2022-09-23T03:28:38.074Z,101329.00
2022-09-23T03:31:06.273Z,101322.03
2022-09-23T03:33:38.775Z,101333.47
2022-09-23T03:36:29.529Z,101327.63
2022-09-23T03:39:08.898Z,101324.81
2022-09-23T03:41:45.264Z,101323.72
2022-09-23T03:44:12.766Z,101319.56
2022-09-23T03:46:43.004Z,101320.13
2022-09-23T03:49:16.608Z,101324.50
2022-09-23T03:51:46.362Z,101320.09
2022-09-23T03:54:13.849Z,101315.03
2022-09-23T03:56:41.550Z,101303.44
2022-09-23T03:59:09.066Z,101307.09
2022-09-23T04:01:38.706Z,101306.16
2022-09-23T04:04:06.480Z,101301.78
2022-09-23T04:06:34.723Z,101306.09
2022-09-23T04:09:02.440Z,101313.16
2022-09-23T04:11:30.169Z,101300.94
2022-09-23T04:13:58.196Z,101298.41
2022-09-23T04:16:31.173Z,101287.97
2022-09-23T04:18:58.950Z,101297.78
2022-09-23T04:21:27.614Z,101301.31
2022-09-23T04:23:55.300Z,101298.78
2022-09-23T04:26:22.895Z,101297.84
2022-09-23T04:28:50.472Z,101299.69
2022-09-23T04:31:18.045Z,101291.75
2022-09-23T04:33:48.003Z,101308.44
2022-09-23T04:36:15.734Z,101293.50
2022-09-23T04:38:50.035Z,101300.34
2022-09-23T04:41:18.669Z,101295.53
2022-09-23T04:43:46.366Z,101285.09
2022-09-23T04:46:15.825Z,101285.97
2022-09-23T04:48:44.354Z,101280.59
2022-09-23T04:51:14.606Z,101289.56
2022-09-23T04:53:45.110Z,101295.78
2022-09-23T04:56:22.445Z,101283.69
2022-09-23T04:58:52.164Z,101302.13
2022-09-23T05:01:34.483Z,101290.72
2022-09-23T05:04:07.782Z,101305.66
2022-09-23T05:06:35.994Z,101296.00
2022-09-23T05:09:06.506Z,101296.00
2022-09-23T05:11:36.535Z,101300.34
2022-09-23T05:14:04.223Z,101299.44
2022-09-23T05:16:36.980Z,101298.47
2022-09-23T05:19:04.880Z,101306.34
2022-09-23T05:21:32.882Z,101312.38
2022-09-23T05:24:01.010Z,101312.25
2022-09-23T05:26:30.828Z,101308.91
2022-09-23T05:28:59.761Z,101311.69
2022-09-23T05:31:29.527Z,101314.28
2022-09-23T05:34:02.034Z,101310.72
2022-09-23T05:36:36.897Z,101314.19
2022-09-23T05:39:06.180Z,101301.00
2022-09-23T05:41:34.093Z,101299.22
2022-09-23T05:44:02.200Z,101303.41
2022-09-23T05:46:31.876Z,101306.00
2022-09-23T05:49:03.026Z,101308.66
2022-09-23T05:51:32.827Z,101301.09
2022-09-23T05:54:04.131Z,101305.25
2022-09-23T05:56:36.322Z,101310.41
2022-09-23T05:59:05.235Z,101304.91
2022-09-23T06:01:35.482Z,101308.34
2022-09-23T06:04:06.023Z,101307.41
2022-09-23T06:06:38.087Z,101305.22
2022-09-23T06:09:08.607Z,101299.78
2022-09-23T06:11:37.608Z,101298.94
2022-09-23T06:14:05.870Z,101299.81
2022-09-23T06:16:35.365Z,101300.03
2022-09-23T06:19:09.935Z,101299.81
2022-09-23T06:25:04.859Z,101307.78
2022-09-23T06:28:17.610Z,101313.06
2022-09-23T06:30:45.573Z,101309.09
2022-09-23T06:33:24.235Z,101310.84
2022-09-23T06:40:34.187Z,101311.91
2022-09-23T06:43:05.222Z,101305.69
2022-09-23T06:45:35.888Z,101304.13
2022-09-23T06:48:08.487Z,101307.84
2022-09-23T06:51:19.486Z,101318.56
2022-09-23T06:54:00.010Z,101317.84
2022-09-23T06:57:01.889Z,101316.16
2022-09-23T07:00:18.311Z,101321.47
2022-09-23T07:02:46.576Z,101314.72
2022-09-23T07:05:22.342Z,101304.19
2022-09-23T07:07:53.397Z,101311.91
2022-09-23T07:10:28.230Z,101315.25
2022-09-23T07:13:16.970Z,101316.28
2022-09-23T07:15:52.035Z,101317.53
2022-09-23T07:18:29.438Z,101314.63
2022-09-23T07:21:18.215Z,101328.28
2022-09-23T07:23:49.630Z,101326.28
2022-09-23T07:26:19.100Z,101338.53
2022-09-23T07:28:50.410Z,101335.25
2022-09-23T07:31:36.617Z,101340.31
2022-09-23T07:34:11.631Z,101346.09
2022-09-23T07:36:43.802Z,101343.38
2022-09-23T07:39:15.987Z,101348.88
2022-09-23T07:41:49.437Z,101348.84
2022-09-23T07:44:23.001Z,101357.06
2022-09-23T07:46:50.949Z,101353.53
2022-09-23T07:49:55.623Z,101367.75
2022-09-23T07:53:03.347Z,101363.41
2022-09-23T08:09:48.457Z,101360.22
2022-09-23T08:25:10.316Z,101356.38
2022-09-23T08:27:42.763Z,101359.25
2022-09-23T08:30:13.277Z,101356.47
2022-09-23T08:32:40.838Z,101354.63
2022-09-23T08:35:08.939Z,101363.13
2022-09-23T08:37:36.486Z,101368.97
2022-09-23T08:40:07.319Z,101370.63
2022-09-23T08:42:41.881Z,101362.56
2022-09-23T08:45:20.758Z,101363.63
2022-09-23T08:47:50.959Z,101367.09
2022-09-23T08:50:24.443Z,101363.28
2022-09-23T08:52:57.101Z,101360.03
2022-09-23T08:55:48.965Z,101371.63
2022-09-23T08:58:25.950Z,101369.69
2022-09-23T09:01:09.526Z,101372.06
2022-09-23T09:03:49.419Z,101378.50
2022-09-23T09:06:25.912Z,101370.16
2022-09-23T09:08:57.510Z,101368.38
2022-09-23T09:11:33.421Z,101360.41
2022-09-23T09:14:49.094Z,101363.75
2022-09-23T09:17:31.704Z,101358.59
2022-09-23T09:20:19.708Z,101355.03
2022-09-23T09:22:54.479Z,101343.56
2022-09-23T09:25:50.589Z,101351.72
2022-09-23T09:28:48.646Z,101345.81
2022-09-23T09:31:45.320Z,101341.06
2022-09-23T09:34:38.653Z,101341.31
2022-09-23T09:37:39.344Z,101342.28
2022-09-23T09:40:12.223Z,101344.63
2022-09-23T09:42:41.661Z,101346.56
2022-09-23T09:45:57.724Z,101346.78
2022-09-23T09:49:06.415Z,101345.25
2022-09-23T09:51:34.360Z,101340.72
2022-09-23T09:54:23.228Z,101335.75
2022-09-23T09:56:54.378Z,101343.66
2022-09-23T09:59:28.136Z,101337.41
2022-09-23T10:02:24.086Z,101344.75
2022-09-23T10:04:59.073Z,101331.22
2022-09-23T10:07:29.867Z,101341.75
2022-09-23T10:10:01.866Z,101341.84
2022-09-23T10:12:49.919Z,101326.47
2022-09-23T10:15:31.367Z,101324.28
2022-09-23T10:18:05.271Z,101323.63
2022-09-23T10:20:38.058Z,101329.34
2022-09-23T10:23:14.352Z,101334.22
2022-09-23T10:25:42.429Z,101321.72
2022-09-23T10:28:31.631Z,101325.97
2022-09-23T10:31:12.703Z,101314.41
2022-09-23T10:33:49.210Z,101318.63
2022-09-23T10:36:18.464Z,101322.03
2022-09-23T10:38:50.104Z,101309.91
2022-09-23T10:42:02.189Z,101316.03
2022-09-23T10:45:13.838Z,101312.34
2022-09-23T10:47:59.860Z,101314.91
2022-09-23T10:50:48.658Z,101310.06
2022-09-23T10:53:42.172Z,101301.53
2022-09-23T10:56:16.720Z,101300.00
2022-09-23T10:59:00.695Z,101305.44
2022-09-23T11:01:46.932Z,101309.16
2022-09-23T11:04:35.860Z,101307.72
2022-09-23T11:07:27.838Z,101292.22
2022-09-23T11:14:40.970Z,101288.31
2022-09-23T11:18:10.620Z,101284.16
2022-09-23T11:21:02.005Z,101280.97
2022-09-23T11:24:06.816Z,101274.03
2022-09-23T11:26:59.856Z,101271.41
2022-09-23T11:30:00.691Z,101268.09
2022-09-23T11:35:45.440Z,101251.03
2022-09-23T11:39:16.338Z,101255.63
2022-09-23T11:41:45.447Z,101242.41
2022-09-23T11:44:32.178Z,101247.91
2022-09-23T11:47:04.972Z,101235.31
2022-09-23T11:49:53.855Z,101241.06
2022-09-23T11:52:36.064Z,101238.09
2022-09-23T11:55:21.611Z,101235.94
2022-09-23T11:57:56.562Z,101219.66
2022-09-23T12:00:26.589Z,101236.72
2022-09-23T12:03:18.403Z,101230.94
2022-09-23T12:05:51.460Z,101227.28
2022-09-23T12:08:33.618Z,101220.13
2022-09-23T12:11:25.043Z,101223.09
2022-09-23T12:14:01.437Z,101221.28
2022-09-23T12:16:43.865Z,101219.53
2022-09-23T12:19:33.267Z,101213.34
2022-09-23T12:22:28.178Z,101218.84
2022-09-23T12:25:28.839Z,101205.72
2022-09-23T12:28:03.749Z,101207.13
2022-09-23T12:30:34.541Z,101211.72
2022-09-23T12:33:24.558Z,101205.63
2022-09-23T12:35:54.632Z,101208.06
2022-09-23T12:38:31.696Z,101202.44
2022-09-23T12:41:00.150Z,101198.44
2022-09-23T12:43:33.070Z,101197.72
2022-09-23T12:46:26.188Z,101200.44
2022-09-23T12:48:54.451Z,101195.16
2022-09-23T12:51:22.075Z,101193.09
2022-09-23T12:53:54.331Z,101195.84
2022-09-23T12:56:46.143Z,101183.63
2022-09-23T12:59:16.398Z,101180.31
2022-09-23T13:01:44.564Z,101169.38
2022-09-23T13:05:05.072Z,101178.00
2022-09-23T13:07:34.277Z,101154.66
2022-09-23T13:10:09.062Z,101151.63
2022-09-23T13:12:41.314Z,101154.72
2022-09-23T13:15:21.900Z,101147.41
2022-09-23T13:18:25.170Z,101146.47
2022-09-23T13:20:55.129Z,101143.63
2022-09-23T13:24:21.451Z,101145.84
2022-09-23T13:27:26.730Z,101145.38
2022-09-23T13:30:20.252Z,101150.81
2022-09-23T13:33:12.912Z,101142.09
2022-09-23T13:35:54.575Z,101136.84
2022-09-23T13:38:30.227Z,101136.41
2022-09-23T13:41:16.312Z,101137.63
2022-09-23T13:44:12.399Z,101143.00
2022-09-23T13:46:47.190Z,101138.97
2022-09-23T13:49:36.483Z,101127.00
2022-09-23T13:52:25.170Z,101123.84
2022-09-23T13:55:02.196Z,101118.28
2022-09-23T13:57:59.011Z,101119.25
2022-09-23T14:00:29.751Z,101119.88
2022-09-23T14:03:39.733Z,101121.28
2022-09-23T14:06:16.497Z,101112.34
2022-09-23T14:08:54.273Z,101104.25
2022-09-23T14:11:33.445Z,101109.31
2022-09-23T14:14:09.780Z,101095.31
2022-09-23T14:17:54.600Z,101105.28
2022-09-23T14:20:25.227Z,101085.31
2022-09-23T14:23:11.644Z,101098.28
2022-09-23T14:26:12.104Z,101091.19
2022-09-23T14:32:57.926Z,101088.84
2022-09-23T14:35:38.802Z,101083.63
2022-09-23T14:38:52.614Z,101089.63
2022-09-23T14:41:25.506Z,101086.19
2022-09-23T14:44:01.463Z,101083.28
2022-09-23T14:46:42.639Z,101081.13
2022-09-23T14:49:15.067Z,101083.63
2022-09-23T14:51:55.333Z,101077.25
2022-09-23T14:54:40.454Z,101077.19
2022-09-23T14:57:23.458Z,101075.22
2022-09-23T15:00:20.597Z,101064.69
2022-09-23T15:03:02.063Z,101061.16
2022-09-23T15:05:44.472Z,101068.00
2022-09-23T15:08:22.347Z,101066.63
2022-09-23T15:10:50.412Z,101071.22
2022-09-23T15:13:21.350Z,101072.41
2022-09-23T15:15:52.968Z,101074.34
2022-09-23T15:18:26.674Z,101065.72
2022-09-23T15:20:57.920Z,101056.66
2022-09-23T15:23:43.992Z,101065.03
2022-09-23T15:26:24.847Z,101073.41
2022-09-23T15:28:58.466Z,101066.03
2022-09-23T15:31:26.781Z,101056.91
2022-09-23T15:33:58.397Z,101056.13
2022-09-23T15:36:30.813Z,101057.13
2022-09-23T15:39:06.472Z,101056.75
2022-09-23T15:41:34.579Z,101044.97
2022-09-23T15:44:17.187Z,101046.13
2022-09-23T15:46:52.007Z,101043.19
2022-09-23T15:49:48.874Z,101040.50
2022-09-23T15:52:16.714Z,101039.00
2022-09-23T15:54:44.273Z,101034.09
2022-09-23T15:57:11.860Z,101029.78
2022-09-23T15:59:39.466Z,101038.56
2022-09-23T16:02:17.695Z,101036.06
2022-09-23T16:04:50.513Z,101025.56
2022-09-23T16:07:19.926Z,101030.84
2022-09-23T16:09:47.570Z,101039.19
2022-09-23T16:12:16.555Z,101033.72
2022-09-23T16:14:44.240Z,101035.34
2022-09-23T16:17:14.094Z,101036.56
2022-09-23T16:19:41.661Z,101027.41
2022-09-23T16:22:10.628Z,101031.97
2022-09-23T16:24:38.183Z,101037.97
2022-09-23T16:27:07.887Z,101028.28
2022-09-23T16:29:35.489Z,101028.31
2022-09-23T16:32:03.227Z,101024.22
2022-09-23T16:34:33.787Z,101028.09
2022-09-23T16:37:03.758Z,101028.09
2022-09-23T16:39:31.317Z,101034.22
2022-09-23T16:41:58.942Z,101032.91
2022-09-23T16:44:26.555Z,101031.50
2022-09-23T16:46:54.157Z,101031.81
2022-09-23T16:49:21.716Z,101030.41
2022-09-23T16:51:49.243Z,101020.03
2022-09-23T16:54:19.327Z,101015.75
2022-09-23T16:56:46.880Z,101014.22
2022-09-23T16:59:15.535Z,101026.09
2022-09-23T17:02:05.010Z,101025.19
2022-09-23T17:04:32.719Z,101028.53
2022-09-23T17:07:00.410Z,101028.72
2022-09-23T17:09:32.071Z,101016.94
2022-09-23T17:12:16.221Z,101028.00
2022-09-23T17:14:43.815Z,101015.81
2022-09-23T17:17:11.464Z,101022.53
2022-09-23T17:19:41.404Z,101019.63
2022-09-23T17:22:09.970Z,101033.53
2022-09-23T17:24:37.558Z,101018.19
2022-09-23T17:27:05.116Z,101025.97
2022-09-23T17:29:32.787Z,101022.78
2022-09-23T17:32:00.519Z,101026.69
2022-09-23T17:34:29.089Z,101024.50
2022-09-23T17:36:56.731Z,101031.72
2022-09-23T17:39:24.420Z,101025.34
2022-09-23T17:41:58.625Z,101030.63
2022-09-23T17:44:26.584Z,101025.16
2022-09-23T17:46:54.141Z,101023.84
2022-09-23T17:49:22.029Z,101017.81
2022-09-23T17:51:51.171Z,101022.31
2022-09-23T17:54:18.794Z,101017.72
2022-09-23T17:56:46.341Z,101023.19
2022-09-23T17:59:14.128Z,101021.38
2022-09-23T18:01:41.756Z,101032.03
2022-09-23T18:04:09.503Z,101033.19
2022-09-23T18:06:37.731Z,101025.69
2022-09-23T18:09:07.378Z,101039.28
2022-09-23T18:11:39.293Z,101037.25
2022-09-23T18:14:34.893Z,101033.84
2022-09-23T18:17:09.877Z,101046.41
2022-09-23T18:19:37.492Z,101037.56
2022-09-23T18:22:05.151Z,101047.75
2022-09-23T18:24:34.975Z,101044.53
2022-09-23T18:27:02.695Z,101048.50
2022-09-23T18:29:30.394Z,101053.13
2022-09-23T18:31:59.401Z,101046.81
2022-09-23T18:34:37.291Z,101066.66
2022-09-23T18:37:15.036Z,101067.88
2022-09-23T18:39:55.404Z,101065.69
2022-09-23T18:42:27.492Z,101065.19
2022-09-23T18:44:56.606Z,101055.56
2022-09-23T18:47:43.047Z,101066.38
2022-09-23T18:50:32.038Z,101065.47
2022-09-23T18:53:01.058Z,101059.84
2022-09-23T18:55:28.608Z,101071.28
2022-09-23T18:57:56.567Z,101068.59
2022-09-23T19:00:24.126Z,101060.31
2022-09-23T19:02:54.517Z,101063.34
2022-09-23T19:05:22.158Z,101072.78
2022-09-23T19:07:49.834Z,101064.00
2022-09-23T19:10:19.274Z,101073.84
2022-09-23T19:12:46.833Z,101076.28
2022-09-23T19:15:14.427Z,101059.19
2022-09-23T19:17:41.948Z,101066.72
2022-09-23T19:20:12.605Z,101070.25
2022-09-23T19:22:40.140Z,101067.66
2022-09-23T19:25:08.523Z,101070.25
2022-09-23T19:27:36.080Z,101070.72
2022-09-23T19:30:16.279Z,101066.34
2022-09-23T19:33:15.114Z,101063.28
2022-09-23T19:36:20.629Z,101066.84
2022-09-23T19:38:51.677Z,101057.34
2022-09-23T19:41:54.414Z,101065.34
2022-09-23T19:44:27.326Z,101059.88
2022-09-23T19:46:57.068Z,101068.88
2022-09-23T19:49:25.572Z,101057.81
2022-09-23T19:52:25.317Z,101060.16
2022-09-23T19:54:53.002Z,101059.13
2022-09-23T19:57:20.661Z,101054.03
2022-09-23T19:59:48.256Z,101056.13
2022-09-23T20:02:16.009Z,101064.28
2022-09-23T20:04:43.620Z,101058.75
2022-09-23T20:07:11.236Z,101050.88
2022-09-23T20:09:38.732Z,101050.56
2022-09-23T20:12:06.390Z,101052.25
2022-09-23T20:14:49.485Z,101054.84
2022-09-23T20:17:22.108Z,101059.28
2022-09-23T20:20:15.819Z,101064.91
2022-09-23T20:22:59.748Z,101067.16
2022-09-23T20:26:26.365Z,101078.28
2022-09-23T20:28:54.029Z,101066.72
2022-09-23T20:31:38.810Z,101071.31
2022-09-23T20:34:35.551Z,101086.97
2022-09-23T20:37:33.010Z,101078.13
2022-09-23T20:40:29.810Z,101073.97
2022-09-23T20:43:10.492Z,101089.88
2022-09-23T20:46:04.232Z,101087.03
2022-09-23T20:48:39.112Z,101083.53
2022-09-23T20:51:33.965Z,101087.53
2022-09-23T20:55:08.876Z,101089.03
2022-09-23T20:57:48.971Z,101089.75
2022-09-23T21:00:30.580Z,101085.91
2022-09-23T21:03:10.546Z,101086.28
2022-09-23T21:05:59.966Z,101072.63
2022-09-23T21:08:55.029Z,101082.09
2022-09-23T21:11:42.513Z,101080.38
2022-09-23T21:15:04.402Z,101081.66
2022-09-23T21:17:32.040Z,101071.56
2022-09-23T21:20:00.053Z,101086.94
2022-09-23T21:22:43.962Z,101074.44
2022-09-23T21:26:02.691Z,101078.25
2022-09-23T21:29:35.951Z,101079.81
2022-09-23T23:10:47.476Z,101075.53
2022-09-23T23:16:55.775Z,101076.09
2022-09-23T23:19:37.088Z,101060.59
2022-09-23T23:22:13.538Z,101070.31
2022-09-23T23:25:00.318Z,101065.84
2022-09-23T23:28:06.016Z,101064.19
2022-09-23T23:31:00.642Z,101068.59
2022-09-23T23:34:25.302Z,101069.25
2022-09-23T23:37:29.817Z,101055.16
2022-09-23T23:40:20.650Z,101061.88
2022-09-23T23:43:04.483Z,101061.63
2022-09-23T23:45:35.681Z,101059.91
2022-09-23T23:48:26.004Z,101052.44
2022-09-23T23:51:05.065Z,101055.28
2022-09-23T23:54:01.122Z,101047.91
2022-09-23T23:56:56.828Z,101037.22
2022-09-23T23:59:33.148Z,101052.16
